Time;durP1;ratioP1;P1;durP2;ratioP2;P2;SDS_P1;SDS_P2;PMS_P1;PMS_P2;Temp;Humidity;BMP_temperature;BMP_pressure;BME280_temperature;BME280_humidity;BME280_pressure;Samples;Min_cycle;Max_cycle;Signal;HPM_P1;HPM_P2
2022/05/12 00:00:12;;;;;;;;;;;12.40;99.90;;;;;;4981263;28;19949;-75
2022/05/12 00:02:37;;;;;;;;;;;12.30;99.90;;;;;;4982326;28;19929;-74
2022/05/12 00:05:06;;;;;;;;;;;12.20;99.90;;;;;;4983352;28;19992;-74
2022/05/12 00:07:32;;;;;;;;;;;12.20;99.90;;;;;;4988706;28;19927;-75
2022/05/12 00:09:58;;;;;;;;;;;12.10;99.90;;;;;;4983318;28;21149;-74
2022/05/12 00:12:24;;;;;;;;;;;12.10;99.90;;;;;;4982107;28;19929;-75
2022/05/12 00:14:49;;;;;;;;;;;12.00;99.90;;;;;;4983484;28;19925;-74
2022/05/12 00:17:15;;;;;;;;;;;11.90;99.90;;;;;;4984332;28;19995;-75
2022/05/12 00:19:41;;;;;;;;;;;11.90;99.90;;;;;;4981024;28;19932;-74
2022/05/12 00:22:06;;;;;;;;;;;11.90;99.90;;;;;;4983024;28;20379;-75
2022/05/12 00:24:32;;;;;;;;;;;11.80;99.90;;;;;;4979173;28;19932;-75
2022/05/12 00:26:58;;;;;;;;;;;11.80;99.90;;;;;;4984087;28;19971;-74
2022/05/12 00:29:25;;;;;;;;;;;11.70;99.90;;;;;;4977024;28;19932;-75
2022/05/12 00:31:51;;;;;;;;;;;11.70;99.90;;;;;;4977377;28;20425;-75
2022/05/12 00:34:17;;;;;;;;;;;11.60;99.90;;;;;;4986143;28;19925;-74
2022/05/12 00:36:44;;;;;;;;;;;11.60;99.90;;;;;;4983142;28;20213;-74
2022/05/12 00:39:09;;;;;;;;;;;11.60;99.90;;;;;;4980281;28;19932;-75
2022/05/12 00:41:35;;;;;;;;;;;11.60;99.90;;;;;;4959859;28;19925;-74
2022/05/12 00:44:05;;;;;;;;;;;11.50;99.90;;;;;;4982255;28;20283;-74
2022/05/12 00:46:32;;;;;;;;;;;11.50;99.90;;;;;;4961533;28;19958;-74
2022/05/12 00:48:59;;;;;;;;;;;11.40;99.90;;;;;;4983692;28;20484;-74
2022/05/12 00:51:27;;;;;;;;;;;11.50;99.90;;;;;;4985039;28;20397;-74
2022/05/12 00:53:54;;;;;;;;;;;11.40;99.90;;;;;;4984826;28;19960;-74
2022/05/12 00:56:21;;;;;;;;;;;11.40;99.90;;;;;;4986047;28;19995;-74
2022/05/12 00:58:49;;;;;;;;;;;11.30;99.90;;;;;;4984815;28;19929;-74
2022/05/12 01:01:15;;;;;;;;;;;11.30;99.90;;;;;;4966071;28;19932;-74
2022/05/12 01:03:42;;;;;;;;;;;11.30;99.90;;;;;;4984672;28;19933;-75
2022/05/12 01:06:08;;;;;;;;;;;11.30;99.90;;;;;;4984244;28;20640;-74
2022/05/12 01:08:34;;;;;;;;;;;11.20;99.90;;;;;;4974314;28;19935;-74
2022/05/12 01:11:03;;;;;;;;;;;11.20;99.90;;;;;;4988565;28;19931;-74
2022/05/12 01:13:29;;;;;;;;;;;11.10;99.90;;;;;;4985820;28;19979;-74
2022/05/12 01:15:56;;;;;;;;;;;11.10;99.90;;;;;;4968584;28;20542;-74
2022/05/12 01:18:22;;;;;;;;;;;11.10;99.90;;;;;;4986111;28;21040;-75
2022/05/12 01:20:48;;;;;;;;;;;11.10;99.90;;;;;;4981186;28;19940;-74
2022/05/12 01:23:26;;;;;;;;;;;11.10;99.90;;;;;;4980932;28;19925;-74
2022/05/12 01:25:59;;;;;;;;;;;11.00;99.90;;;;;;4963184;28;20268;-74
2022/05/12 01:28:25;;;;;;;;;;;11.10;99.90;;;;;;4985710;28;20374;-74
2022/05/12 01:30:51;;;;;;;;;;;11.00;99.90;;;;;;4963531;28;19944;-74
2022/05/12 01:33:16;;;;;;;;;;;11.00;99.90;;;;;;4984171;28;19971;-74
2022/05/12 01:35:42;;;;;;;;;;;11.00;99.90;;;;;;4981264;28;19987;-74
2022/05/12 01:38:08;;;;;;;;;;;10.90;99.90;;;;;;4962865;28;19936;-74
2022/05/12 01:40:34;;;;;;;;;;;10.90;99.90;;;;;;4983529;28;19961;-74
2022/05/12 01:42:59;;;;;;;;;;;10.80;99.90;;;;;;4984574;28;19925;-74
2022/05/12 01:45:26;;;;;;;;;;;10.80;99.90;;;;;;4982560;28;19932;-74
2022/05/12 01:47:52;;;;;;;;;;;10.80;99.90;;;;;;4968074;28;19925;-75
2022/05/12 01:50:18;;;;;;;;;;;10.80;99.90;;;;;;4983791;28;20610;-74
2022/05/12 01:52:44;;;;;;;;;;;10.80;99.90;;;;;;4982856;28;20012;-74
2022/05/12 01:55:11;;;;;;;;;;;10.70;99.90;;;;;;4980850;28;20362;-74
2022/05/12 01:57:36;;;;;;;;;;;10.70;99.90;;;;;;4981625;28;19934;-74
2022/05/12 02:00:04;;;;;;;;;;;10.70;99.90;;;;;;4982239;28;19925;-74
2022/05/12 02:02:30;;;;;;;;;;;10.70;99.90;;;;;;4983576;28;20413;-74
2022/05/12 02:04:55;;;;;;;;;;;10.70;99.90;;;;;;4986059;28;19925;-74
2022/05/12 02:07:21;;;;;;;;;;;10.70;99.90;;;;;;4961985;28;20421;-74
2022/05/12 02:09:46;;;;;;;;;;;10.70;99.90;;;;;;4980940;28;19930;-74
2022/05/12 02:12:12;;;;;;;;;;;10.70;99.90;;;;;;4963907;28;19936;-74
2022/05/12 02:14:38;;;;;;;;;;;10.70;99.90;;;;;;4978764;28;20420;-74
2022/05/12 02:17:03;;;;;;;;;;;10.70;99.90;;;;;;4980994;28;19926;-74
2022/05/12 02:19:29;;;;;;;;;;;10.60;99.90;;;;;;4977487;28;19934;-74
2022/05/12 02:21:55;;;;;;;;;;;10.40;99.90;;;;;;4982093;28;19925;-74
2022/05/12 02:24:21;;;;;;;;;;;10.40;99.90;;;;;;4970261;28;19930;-74
2022/05/12 02:26:46;;;;;;;;;;;10.30;99.90;;;;;;4967684;28;19968;-74
2022/05/12 02:29:12;;;;;;;;;;;10.30;99.90;;;;;;4984222;28;19929;-74
2022/05/12 02:31:37;;;;;;;;;;;10.20;99.90;;;;;;4981912;28;19979;-74
2022/05/12 02:34:03;;;;;;;;;;;10.20;99.90;;;;;;4987336;28;20913;-74
2022/05/12 02:36:29;;;;;;;;;;;10.20;99.90;;;;;;4983326;28;20055;-74
2022/05/12 02:38:55;;;;;;;;;;;10.10;99.90;;;;;;4986831;28;19925;-74
2022/05/12 02:41:20;;;;;;;;;;;10.10;99.90;;;;;;4986669;28;19961;-74
2022/05/12 02:43:46;;;;;;;;;;;10.00;99.90;;;;;;4985560;28;20563;-74
2022/05/12 02:46:13;;;;;;;;;;;10.10;99.90;;;;;;4985600;28;20603;-74
2022/05/12 02:48:40;;;;;;;;;;;10.10;99.90;;;;;;4985181;28;20044;-74
2022/05/12 02:51:06;;;;;;;;;;;10.10;99.90;;;;;;4985580;28;19931;-74
2022/05/12 02:53:32;;;;;;;;;;;10.00;99.90;;;;;;4984683;28;19929;-74
2022/05/12 02:55:58;;;;;;;;;;;10.00;99.90;;;;;;4981286;28;19937;-74
2022/05/12 02:58:23;;;;;;;;;;;10.00;99.90;;;;;;4991391;28;19925;-74
2022/05/12 03:00:50;;;;;;;;;;;10.00;99.90;;;;;;4974312;28;20514;-74
2022/05/12 03:03:16;;;;;;;;;;;10.00;99.90;;;;;;4991913;28;19932;-74
2022/05/12 03:05:41;;;;;;;;;;;10.00;99.90;;;;;;4989512;28;19925;-74
2022/05/12 03:08:07;;;;;;;;;;;9.90;99.90;;;;;;4991414;28;20533;-74
2022/05/12 03:10:33;;;;;;;;;;;9.90;99.90;;;;;;4997037;28;19980;-74
2022/05/12 03:13:01;;;;;;;;;;;9.90;99.90;;;;;;4978663;28;19967;-74
2022/05/12 03:15:31;;;;;;;;;;;9.80;99.90;;;;;;4977073;28;20586;-74
2022/05/12 03:17:57;;;;;;;;;;;9.90;99.90;;;;;;4977660;28;19929;-74
2022/05/12 03:20:25;;;;;;;;;;;9.80;99.90;;;;;;4980306;28;19945;-74
2022/05/12 03:22:51;;;;;;;;;;;9.90;99.90;;;;;;4980716;28;19926;-74
2022/05/12 03:25:18;;;;;;;;;;;9.90;99.90;;;;;;4980354;28;19933;-74
2022/05/12 03:27:43;;;;;;;;;;;9.90;99.90;;;;;;4982215;28;19925;-74
2022/05/12 03:30:11;;;;;;;;;;;9.90;99.90;;;;;;4956476;28;19925;-73
2022/05/12 03:32:37;;;;;;;;;;;9.90;99.90;;;;;;4982825;28;19983;-74
2022/05/12 03:35:05;;;;;;;;;;;10.00;99.90;;;;;;4977168;28;20591;-74
2022/05/12 03:37:31;;;;;;;;;;;10.00;99.90;;;;;;4980939;28;19926;-74
2022/05/12 03:39:57;;;;;;;;;;;10.00;99.90;;;;;;4981603;28;19929;-73
2022/05/12 03:42:23;;;;;;;;;;;10.00;99.90;;;;;;4981912;28;19926;-75
2022/05/12 03:44:53;;;;;;;;;;;10.00;99.90;;;;;;4977065;28;19926;-74
2022/05/12 03:47:21;;;;;;;;;;;9.80;99.90;;;;;;4975865;28;19965;-74
2022/05/12 03:49:51;;;;;;;;;;;9.90;99.90;;;;;;4979070;28;19980;-74
2022/05/12 03:52:17;;;;;;;;;;;9.90;99.90;;;;;;4979092;28;19925;-74
2022/05/12 03:54:43;;;;;;;;;;;9.90;99.90;;;;;;4980308;28;19930;-74
2022/05/12 03:57:10;;;;;;;;;;;10.00;99.90;;;;;;4978546;28;19932;-74
2022/05/12 03:59:38;;;;;;;;;;;9.90;99.90;;;;;;4959939;28;19933;-74
2022/05/12 04:02:04;;;;;;;;;;;10.00;99.90;;;;;;4982796;28;19951;-74
2022/05/12 04:04:30;;;;;;;;;;;9.90;99.90;;;;;;4954636;28;19933;-74
2022/05/12 04:06:56;;;;;;;;;;;9.90;99.90;;;;;;4957426;28;20501;-75
2022/05/12 04:09:22;;;;;;;;;;;10.00;99.90;;;;;;4978682;28;19949;-74
2022/05/12 04:11:48;;;;;;;;;;;10.00;99.90;;;;;;4977480;28;19925;-74
2022/05/12 04:14:13;;;;;;;;;;;10.10;99.90;;;;;;4982514;28;19967;-74
2022/05/12 04:16:39;;;;;;;;;;;10.10;99.90;;;;;;4976955;28;19925;-74
2022/05/12 04:19:05;;;;;;;;;;;10.10;99.90;;;;;;4974513;28;19984;-74
2022/05/12 04:21:34;;;;;;;;;;;10.10;99.90;;;;;;4979779;28;19972;-74
2022/05/12 04:24:05;;;;;;;;;;;10.20;99.90;;;;;;4978113;28;19932;-74
2022/05/12 04:26:32;;;;;;;;;;;10.10;99.90;;;;;;4960345;28;19929;-74
2022/05/12 04:28:57;;;;;;;;;;;10.10;99.90;;;;;;4981750;28;19952;-74
2022/05/12 04:31:23;;;;;;;;;;;10.20;99.90;;;;;;4976031;28;20602;-74
2022/05/12 04:36:33;;;;;;;;;;;10.30;99.90;;;;;;4978622;28;20016;-74
2022/05/12 04:38:59;;;;;;;;;;;10.40;99.90;;;;;;4979300;28;19978;-74
2022/05/12 04:41:25;;;;;;;;;;;10.50;99.90;;;;;;4978928;28;19930;-74
2022/05/12 04:43:51;;;;;;;;;;;10.50;99.90;;;;;;4977812;28;20700;-73
2022/05/12 04:46:17;;;;;;;;;;;10.60;99.90;;;;;;4976987;28;20442;-74
2022/05/12 04:48:43;;;;;;;;;;;10.60;99.90;;;;;;4975430;28;19932;-74
2022/05/12 04:51:09;;;;;;;;;;;11.00;99.90;;;;;;4958050;28;20012;-74
2022/05/12 04:53:35;;;;;;;;;;;11.30;99.90;;;;;;4975812;28;19929;-74
2022/05/12 04:56:00;;;;;;;;;;;11.70;99.90;;;;;;4956566;28;20553;-74
2022/05/12 04:58:26;;;;;;;;;;;11.60;99.90;;;;;;4978594;28;19926;-74
2022/05/12 05:00:52;;;;;;;;;;;11.50;99.90;;;;;;4973137;28;19925;-74
2022/05/12 05:03:18;;;;;;;;;;;12.90;99.90;;;;;;4968611;28;20636;-74
2022/05/12 05:05:44;;;;;;;;;;;14.10;99.90;;;;;;4966331;28;20311;-74
2022/05/12 05:08:19;;;;;;;;;;;14.80;99.90;;;;;;4968418;28;19937;-75
2022/05/12 05:10:44;;;;;;;;;;;15.40;99.90;;;;;;4964932;28;20686;-75
2022/05/12 05:13:10;;;;;;;;;;;15.40;99.90;;;;;;4968539;28;19922;-74
2022/05/12 05:15:36;;;;;;;;;;;15.80;99.90;;;;;;4946351;28;20050;-75
2022/05/12 05:18:03;;;;;;;;;;;16.20;99.90;;;;;;4968915;28;20146;-74
2022/05/12 05:20:29;;;;;;;;;;;17.40;99.90;;;;;;4970434;28;19969;-75
2022/05/12 05:22:56;;;;;;;;;;;16.70;99.90;;;;;;4966718;28;19948;-75
2022/05/12 05:25:22;;;;;;;;;;;18.10;99.90;;;;;;4970598;28;19926;-74
2022/05/12 05:27:48;;;;;;;;;;;17.80;99.90;;;;;;4951379;28;19983;-75
2022/05/12 05:30:17;;;;;;;;;;;18.10;99.90;;;;;;4949234;28;19979;-74
2022/05/12 05:32:42;;;;;;;;;;;19.00;99.90;;;;;;4968711;28;20044;-74
2022/05/12 05:35:08;;;;;;;;;;;18.80;99.90;;;;;;4944980;28;19931;-75
2022/05/12 05:37:34;;;;;;;;;;;19.30;99.90;;;;;;4968963;28;20052;-74
2022/05/12 05:40:01;;;;;;;;;;;19.10;99.90;;;;;;4969080;28;19925;-75
2022/05/12 05:42:27;;;;;;;;;;;19.30;99.90;;;;;;4945827;28;20445;-74
2022/05/12 05:44:53;;;;;;;;;;;18.40;99.90;;;;;;4961288;28;19932;-75
2022/05/12 05:47:19;;;;;;;;;;;16.90;99.90;;;;;;4964393;28;19987;-74
2022/05/12 05:49:45;;;;;;;;;;;16.40;99.90;;;;;;4964430;28;19933;-74
2022/05/12 05:54:55;;;;;;;;;;;15.90;99.90;;;;;;4969291;28;19925;-74
2022/05/12 05:57:24;;;;;;;;;;;15.60;99.90;;;;;;4974386;28;19925;-75
2022/05/12 05:59:51;;;;;;;;;;;15.50;99.90;;;;;;4982106;28;19925;-75
2022/05/12 06:02:17;;;;;;;;;;;15.50;99.90;;;;;;4968602;28;19925;-74
2022/05/12 06:04:42;;;;;;;;;;;15.60;99.90;;;;;;4980199;28;19932;-75
2022/05/12 06:07:08;;;;;;;;;;;15.60;99.90;;;;;;4982650;28;19925;-74
2022/05/12 06:09:34;;;;;;;;;;;15.60;99.90;;;;;;4981984;28;19934;-75
2022/05/12 06:12:00;;;;;;;;;;;15.40;99.90;;;;;;4983816;28;19925;-75
2022/05/12 06:14:26;;;;;;;;;;;15.60;99.90;;;;;;4982310;28;19926;-74
2022/05/12 06:16:52;;;;;;;;;;;15.60;99.90;;;;;;4957506;28;19971;-74
2022/05/12 06:19:18;;;;;;;;;;;15.80;99.90;;;;;;4984097;28;20012;-74
2022/05/12 06:21:44;;;;;;;;;;;15.70;99.90;;;;;;4984407;28;19968;-74
2022/05/12 06:24:09;;;;;;;;;;;15.50;99.90;;;;;;4982354;28;19925;-74
2022/05/12 06:26:35;;;;;;;;;;;15.80;99.90;;;;;;4960263;28;19968;-74
2022/05/12 06:29:00;;;;;;;;;;;16.00;99.90;;;;;;4956546;28;19925;-74
2022/05/12 06:31:29;;;;;;;;;;;15.90;99.90;;;;;;4968613;28;19925;-74
2022/05/12 06:33:56;;;;;;;;;;;15.90;99.90;;;;;;4967965;28;19925;-74
2022/05/12 06:36:22;;;;;;;;;;;16.20;99.90;;;;;;4984579;28;19926;-74
2022/05/12 06:38:47;;;;;;;;;;;16.10;99.90;;;;;;4979804;28;19930;-74
2022/05/12 06:41:14;;;;;;;;;;;16.30;99.90;;;;;;4985803;28;19971;-74
2022/05/12 06:43:45;;;;;;;;;;;16.30;99.90;;;;;;4958822;28;20663;-75
2022/05/12 06:46:17;;;;;;;;;;;16.30;99.90;;;;;;4984968;28;19926;-75
2022/05/12 06:48:47;;;;;;;;;;;16.40;99.90;;;;;;4983217;28;19995;-74
2022/05/12 06:51:13;;;;;;;;;;;16.60;99.90;;;;;;4980853;28;19929;-74
2022/05/12 06:53:39;;;;;;;;;;;16.60;99.90;;;;;;4936875;28;19980;-74
2022/05/12 06:56:05;;;;;;;;;;;16.70;99.90;;;;;;4978617;28;19925;-74
2022/05/12 06:58:31;;;;;;;;;;;16.50;99.90;;;;;;4981454;28;19926;-75
2022/05/12 07:00:56;;;;;;;;;;;16.80;99.90;;;;;;4965530;28;20393;-74
2022/05/12 07:03:22;;;;;;;;;;;17.00;99.90;;;;;;4980527;28;19932;-74
2022/05/12 07:05:48;;;;;;;;;;;17.00;99.90;;;;;;4978397;28;19921;-75
2022/05/12 07:08:14;;;;;;;;;;;16.90;99.90;;;;;;4976278;28;19981;-74
2022/05/12 07:10:39;;;;;;;;;;;16.90;99.90;;;;;;4983897;28;20750;-75
2022/05/12 07:13:05;;;;;;;;;;;17.10;99.90;;;;;;4986187;28;19925;-75
2022/05/12 07:15:31;;;;;;;;;;;16.90;99.90;;;;;;4982995;28;20735;-75
2022/05/12 07:17:58;;;;;;;;;;;17.20;99.90;;;;;;4967673;28;19925;-74
2022/05/12 07:28:38;;;;;;;;;;;18.00;99.90;;;;;;4975354;28;20017;-75
2022/05/12 07:31:05;;;;;;;;;;;17.90;99.90;;;;;;4986234;28;20159;-75
2022/05/12 07:33:34;;;;;;;;;;;18.10;99.90;;;;;;4985067;28;20434;-74
2022/05/12 07:36:05;;;;;;;;;;;18.20;99.90;;;;;;4986126;28;19925;-75
2022/05/12 07:38:32;;;;;;;;;;;18.40;99.90;;;;;;4985393;28;20659;-75
2022/05/12 07:40:58;;;;;;;;;;;18.40;99.90;;;;;;4988196;28;19984;-76
2022/05/12 07:43:23;;;;;;;;;;;18.00;99.90;;;;;;4962796;28;20012;-75
2022/05/12 07:45:49;;;;;;;;;;;18.20;99.90;;;;;;4962586;28;19933;-76
2022/05/12 07:48:15;;;;;;;;;;;18.10;99.90;;;;;;4972849;28;19979;-75
2022/05/12 07:50:41;;;;;;;;;;;18.10;99.90;;;;;;4976852;28;20168;-75
2022/05/12 07:53:07;;;;;;;;;;;18.40;99.90;;;;;;4981865;28;19930;-75
2022/05/12 07:55:33;;;;;;;;;;;18.10;99.90;;;;;;4980611;28;19947;-75
2022/05/12 07:58:00;;;;;;;;;;;18.50;99.90;;;;;;4984223;28;19956;-76
2022/05/12 08:00:26;;;;;;;;;;;18.40;99.90;;;;;;4984132;28;19925;-76
2022/05/12 08:02:52;;;;;;;;;;;18.50;99.90;;;;;;4976916;28;19930;-77
2022/05/12 08:05:18;;;;;;;;;;;18.60;99.90;;;;;;4955104;28;19965;-76
2022/05/12 08:07:45;;;;;;;;;;;18.70;99.90;;;;;;4974273;28;19926;-76
2022/05/12 08:10:11;;;;;;;;;;;18.70;99.90;;;;;;4949987;28;19926;-76
2022/05/12 08:12:37;;;;;;;;;;;18.70;99.90;;;;;;4976470;28;19936;-76
2022/05/12 08:15:04;;;;;;;;;;;18.90;99.90;;;;;;4973609;28;19930;-75
2022/05/12 08:17:30;;;;;;;;;;;19.20;99.90;;;;;;4965736;28;19932;-75
2022/05/12 08:19:55;;;;;;;;;;;18.90;99.90;;;;;;4953224;28;19926;-75
2022/05/12 08:22:21;;;;;;;;;;;18.50;99.90;;;;;;4951888;28;19949;-75
2022/05/12 08:24:47;;;;;;;;;;;18.30;99.90;;;;;;4980878;28;20008;-75
2022/05/12 08:27:13;;;;;;;;;;;18.50;99.90;;;;;;4950374;28;20307;-76
2022/05/12 08:29:41;;;;;;;;;;;18.70;99.90;;;;;;4935930;28;22560;-76
2022/05/12 08:32:07;;;;;;;;;;;18.80;99.90;;;;;;4954766;28;19925;-75
2022/05/12 08:34:32;;;;;;;;;;;18.30;99.90;;;;;;4978780;28;19991;-79
2022/05/12 08:36:58;;;;;;;;;;;18.30;99.90;;;;;;4976481;28;20484;-74
2022/05/12 08:39:24;;;;;;;;;;;18.50;99.90;;;;;;4955090;28;19926;-75
2022/05/12 08:41:57;;;;;;;;;;;19.10;99.90;;;;;;4975090;28;19926;-76
2022/05/12 08:44:23;;;;;;;;;;;19.20;99.90;;;;;;4975376;28;19922;-77
2022/05/12 08:46:54;;;;;;;;;;;18.40;99.90;;;;;;4973190;28;19925;-76
2022/05/12 08:49:23;;;;;;;;;;;18.80;99.90;;;;;;4979048;28;19933;-76
2022/05/12 08:51:54;;;;;;;;;;;18.80;99.90;;;;;;4948168;28;19926;-76
2022/05/12 08:54:22;;;;;;;;;;;19.00;99.90;;;;;;4976920;28;19996;-77
2022/05/12 08:56:51;;;;;;;;;;;19.10;99.90;;;;;;4978907;28;20704;-76
2022/05/12 08:59:17;;;;;;;;;;;18.70;99.90;;;;;;4969546;28;19980;-77
2022/05/12 09:02:04;;;;;;;;;;;17.90;99.90;;;;;;4949028;28;19926;-75
2022/05/12 09:04:46;;;;;;;;;;;18.20;99.90;;;;;;4961825;28;19926;-76
2022/05/12 09:07:27;;;;;;;;;;;18.60;99.90;;;;;;4966619;28;19921;-77
2022/05/12 09:09:59;;;;;;;;;;;19.00;99.90;;;;;;4966913;28;19925;-76
2022/05/12 09:12:45;;;;;;;;;;;19.00;99.90;;;;;;4962831;28;19944;-77
2022/05/12 09:15:16;;;;;;;;;;;19.60;99.90;;;;;;4966018;28;19987;-75
2022/05/12 09:17:56;;;;;;;;;;;19.70;99.90;;;;;;4948061;28;20012;-76
2022/05/12 09:20:23;;;;;;;;;;;19.30;99.90;;;;;;4953092;28;20578;-75
2022/05/12 09:22:48;;;;;;;;;;;19.20;99.90;;;;;;4976938;28;20509;-74
2022/05/12 09:25:33;;;;;;;;;;;19.70;99.90;;;;;;4974451;28;20016;-75
2022/05/12 09:28:06;;;;;;;;;;;18.80;99.90;;;;;;4953587;28;20331;-76
2022/05/12 09:30:36;;;;;;;;;;;18.90;99.90;;;;;;4979443;28;19930;-77
2022/05/12 09:33:02;;;;;;;;;;;17.90;99.90;;;;;;4976334;28;19932;-77
2022/05/12 09:35:28;;;;;;;;;;;18.40;99.90;;;;;;4974230;28;20032;-76
2022/05/12 09:37:54;;;;;;;;;;;18.70;99.90;;;;;;4978299;28;19965;-78
2022/05/12 09:40:34;;;;;;;;;;;19.00;99.90;;;;;;4972497;28;20075;-77
2022/05/12 09:43:02;;;;;;;;;;;19.00;99.90;;;;;;4955619;28;19972;-79
2022/05/12 09:45:33;;;;;;;;;;;19.40;99.90;;;;;;4974704;28;20538;-77
2022/05/12 09:48:07;;;;;;;;;;;19.40;99.90;;;;;;4974671;28;19925;-76
2022/05/12 09:50:33;;;;;;;;;;;19.80;99.90;;;;;;4978008;28;19960;-78
2022/05/12 09:53:03;;;;;;;;;;;20.10;99.40;;;;;;4975015;28;20119;-77
2022/05/12 09:55:30;;;;;;;;;;;20.20;98.90;;;;;;4972115;28;20406;-77
2022/05/12 09:58:21;;;;;;;;;;;20.40;97.20;;;;;;4952792;28;19926;-77
2022/05/12 10:01:07;;;;;;;;;;;20.50;99.90;;;;;;4974511;28;19925;-77
2022/05/12 10:09:06;;;;;;;;;;;20.30;94.00;;;;;;4972462;28;20446;-76
2022/05/12 10:11:41;;;;;;;;;;;20.70;96.80;;;;;;4976358;28;21471;-77
2022/05/12 10:14:12;;;;;;;;;;;20.70;96.50;;;;;;4964485;28;19926;-75
2022/05/12 10:16:38;;;;;;;;;;;21.10;95.60;;;;;;4975922;28;19937;-75
2022/05/12 10:19:05;;;;;;;;;;;21.10;96.30;;;;;;4978344;28;19972;-76
2022/05/12 10:21:43;;;;;;;;;;;20.60;93.10;;;;;;4975910;28;19961;-76
2022/05/12 10:24:17;;;;;;;;;;;19.80;91.20;;;;;;4975670;28;20854;-74
2022/05/12 10:26:51;;;;;;;;;;;20.20;97.10;;;;;;4974771;28;19925;-74
2022/05/12 10:29:34;;;;;;;;;;;20.50;95.30;;;;;;4957788;28;19922;-75
2022/05/12 10:32:15;;;;;;;;;;;20.10;99.00;;;;;;4975061;28;19925;-78
2022/05/12 10:34:59;;;;;;;;;;;19.60;95.00;;;;;;4978368;28;19925;-75
2022/05/12 10:37:28;;;;;;;;;;;19.10;91.40;;;;;;4973506;28;19922;-76
2022/05/12 10:39:56;;;;;;;;;;;18.50;93.10;;;;;;4955046;28;20068;-75
2022/05/12 10:42:41;;;;;;;;;;;18.60;97.00;;;;;;4961195;28;19926;-76
2022/05/12 10:45:10;;;;;;;;;;;19.40;96.90;;;;;;4972108;28;20004;-76
2022/05/12 10:47:54;;;;;;;;;;;19.70;91.30;;;;;;4975237;28;19972;-77
2022/05/12 10:50:23;;;;;;;;;;;20.10;89.10;;;;;;4978952;28;20415;-78
2022/05/12 10:53:07;;;;;;;;;;;20.50;87.00;;;;;;4980070;28;19948;-77
2022/05/12 10:55:45;;;;;;;;;;;20.90;86.40;;;;;;4977882;28;19929;-76
2022/05/12 10:58:19;;;;;;;;;;;20.30;83.20;;;;;;4972303;28;19921;-76
2022/05/12 11:00:48;;;;;;;;;;;19.70;79.10;;;;;;4974876;28;19962;-78
2022/05/12 11:03:27;;;;;;;;;;;19.30;81.80;;;;;;4968035;28;19925;-76
2022/05/12 11:05:56;;;;;;;;;;;19.00;85.20;;;;;;4958420;28;20670;-75
2022/05/12 11:08:29;;;;;;;;;;;19.20;82.20;;;;;;4975647;28;19925;-75
2022/05/12 11:10:58;;;;;;;;;;;20.10;89.90;;;;;;4954283;28;19957;-77
2022/05/12 11:13:27;;;;;;;;;;;20.60;85.90;;;;;;4948155;28;19939;-76
2022/05/12 11:16:01;;;;;;;;;;;21.00;84.70;;;;;;4970196;28;20240;-79
2022/05/12 11:18:31;;;;;;;;;;;20.90;68.20;;;;;;4957303;28;19933;-77
2022/05/12 11:21:00;;;;;;;;;;;21.20;74.10;;;;;;4982482;28;20020;-77
2022/05/12 11:23:43;;;;;;;;;;;21.30;70.30;;;;;;4959259;28;19925;-78
2022/05/12 11:26:18;;;;;;;;;;;21.60;75.90;;;;;;4960173;28;20036;-76
2022/05/12 11:31:47;;;;;;;;;;;21.30;71.80;;;;;;4973400;28;19930;-76
2022/05/12 11:34:17;;;;;;;;;;;21.50;71.60;;;;;;4976401;28;19935;-77
2022/05/12 11:36:50;;;;;;;;;;;20.60;70.50;;;;;;4979845;28;19980;-76
2022/05/12 11:39:35;;;;;;;;;;;20.70;74.00;;;;;;4979439;28;19925;-76
2022/05/12 11:42:11;;;;;;;;;;;20.20;71.60;;;;;;4976000;28;19952;-75
2022/05/12 11:44:44;;;;;;;;;;;20.90;76.30;;;;;;4974718;28;19930;-75
2022/05/12 11:47:29;;;;;;;;;;;21.40;75.90;;;;;;4977718;28;19941;-76
2022/05/12 11:50:18;;;;;;;;;;;21.10;70.40;;;;;;4978723;28;20766;-78
2022/05/12 11:53:01;;;;;;;;;;;21.10;69.90;;;;;;4941399;28;19976;-77
2022/05/12 11:55:52;;;;;;;;;;;20.00;67.50;;;;;;4974239;28;19968;-75
2022/05/12 11:58:27;;;;;;;;;;;19.60;71.40;;;;;;4967576;28;19925;-77
2022/05/12 12:00:54;;;;;;;;;;;19.40;71.70;;;;;;4976368;28;19933;-76
2022/05/12 12:03:22;;;;;;;;;;;20.10;71.70;;;;;;4977387;28;20052;-75
2022/05/12 12:05:47;;;;;;;;;;;20.70;75.00;;;;;;4976105;28;19930;-78
2022/05/12 12:08:33;;;;;;;;;;;20.70;69.60;;;;;;4979492;28;19937;-77
2022/05/12 12:11:14;;;;;;;;;;;21.40;72.50;;;;;;4981236;28;19925;-76
2022/05/12 12:13:43;;;;;;;;;;;21.30;67.20;;;;;;4975356;28;19993;-75
2022/05/12 12:16:11;;;;;;;;;;;21.30;68.20;;;;;;4972664;28;19925;-75
2022/05/12 12:18:36;;;;;;;;;;;21.40;65.40;;;;;;4975438;28;19925;-77
2022/05/12 12:21:22;;;;;;;;;;;21.20;63.20;;;;;;4950285;28;20279;-80
2022/05/12 12:24:15;;;;;;;;;;;21.30;67.10;;;;;;4962004;28;20036;-79
2022/05/12 12:26:42;;;;;;;;;;;21.70;68.90;;;;;;4974273;28;19925;-76
2022/05/12 12:29:20;;;;;;;;;;;22.20;68.30;;;;;;4949820;28;19952;-78
2022/05/12 12:31:47;;;;;;;;;;;22.30;67.60;;;;;;4978006;28;19929;-76
2022/05/12 12:34:16;;;;;;;;;;;21.90;63.80;;;;;;4972578;28;20651;-76
2022/05/12 12:36:49;;;;;;;;;;;22.00;67.60;;;;;;4977187;28;19932;-78
2022/05/12 12:39:35;;;;;;;;;;;22.10;67.00;;;;;;4976879;28;20016;-75
2022/05/12 12:42:20;;;;;;;;;;;21.40;64.70;;;;;;4977967;28;19925;-76
2022/05/12 12:44:50;;;;;;;;;;;20.80;63.90;;;;;;4978926;28;20000;-76
2022/05/12 12:47:43;;;;;;;;;;;20.80;69.10;;;;;;4978049;28;20454;-76
2022/05/12 12:50:09;;;;;;;;;;;21.50;70.30;;;;;;4951442;28;19936;-76
2022/05/12 12:52:43;;;;;;;;;;;21.70;67.00;;;;;;4974854;28;19925;-76
2022/05/12 12:58:11;;;;;;;;;;;21.30;62.90;;;;;;4982091;28;20052;-76
2022/05/12 13:00:38;;;;;;;;;;;21.30;65.80;;;;;;4973816;28;19933;-76
2022/05/12 13:03:06;;;;;;;;;;;21.00;65.70;;;;;;4955923;28;20024;-75
2022/05/12 13:05:32;;;;;;;;;;;20.40;62.30;;;;;;4976359;28;19925;-77
2022/05/12 13:08:03;;;;;;;;;;;20.80;65.90;;;;;;4953485;28;19936;-76
2022/05/12 13:10:30;;;;;;;;;;;20.90;67.00;;;;;;4976697;28;19982;-79
2022/05/12 13:13:00;;;;;;;;;;;21.30;67.70;;;;;;4945534;28;19926;-78
2022/05/12 13:15:26;;;;;;;;;;;21.40;66.00;;;;;;4955355;28;19978;-76
2022/05/12 13:17:55;;;;;;;;;;;21.40;65.10;;;;;;4948672;28;20281;-77
2022/05/12 13:20:22;;;;;;;;;;;21.80;66.60;;;;;;4954394;28;20205;-77
2022/05/12 13:22:55;;;;;;;;;;;21.50;62.80;;;;;;4951029;28;19936;-76
2022/05/12 13:25:29;;;;;;;;;;;21.70;64.10;;;;;;4950116;28;19925;-78
2022/05/12 13:27:55;;;;;;;;;;;21.70;63.40;;;;;;4953032;28;20040;-77
2022/05/12 13:30:33;;;;;;;;;;;21.70;64.90;;;;;;4933460;28;19926;-79
2022/05/12 13:33:04;;;;;;;;;;;21.40;61.70;;;;;;4949280;28;19927;-76
2022/05/12 13:35:33;;;;;;;;;;;21.20;62.90;;;;;;4954765;28;19925;-77
2022/05/12 13:38:02;;;;;;;;;;;21.60;66.30;;;;;;4933136;28;19976;-76
2022/05/12 13:40:42;;;;;;;;;;;21.30;64.50;;;;;;4951393;28;19934;-75
2022/05/12 13:43:15;;;;;;;;;;;21.00;65.20;;;;;;4950691;28;20033;-75
2022/05/12 13:45:41;;;;;;;;;;;20.80;64.50;;;;;;4950189;28;19926;-80
2022/05/12 13:48:12;;;;;;;;;;;20.80;64.00;;;;;;4953283;28;19930;-77
2022/05/12 13:50:47;;;;;;;;;;;20.80;64.30;;;;;;4948329;28;20805;-78
2022/05/12 13:53:23;;;;;;;;;;;21.20;63.50;;;;;;4945691;28;19972;-80
2022/05/12 13:56:04;;;;;;;;;;;21.40;62.10;;;;;;4930555;28;19926;-76
2022/05/12 13:58:29;;;;;;;;;;;21.60;64.40;;;;;;4941524;28;19941;-76
2022/05/12 14:00:55;;;;;;;;;;;21.40;61.30;;;;;;4917043;28;19926;-75
2022/05/12 14:03:24;;;;;;;;;;;21.00;65.30;;;;;;4934660;28;19969;-75
2022/05/12 14:05:58;;;;;;;;;;;20.60;62.70;;;;;;4933321;28;20704;-78
2022/05/12 14:08:32;;;;;;;;;;;20.80;63.40;;;;;;4937175;28;19933;-76
2022/05/12 14:11:00;;;;;;;;;;;20.70;63.80;;;;;;4934335;28;19985;-77
2022/05/12 14:19:19;;;;;;;;;;;20.80;64.00;;;;;;4955780;28;19926;-76
2022/05/12 14:21:49;;;;;;;;;;;21.20;64.10;;;;;;4956155;28;19925;-77
2022/05/12 14:24:16;;;;;;;;;;;21.30;63.00;;;;;;4963857;28;19932;-76
2022/05/12 14:26:42;;;;;;;;;;;21.50;63.00;;;;;;4969362;28;19968;-76
2022/05/12 14:29:09;;;;;;;;;;;21.40;62.00;;;;;;4970417;28;19936;-76
2022/05/12 14:31:36;;;;;;;;;;;21.20;62.70;;;;;;4969488;28;19979;-76
2022/05/12 14:34:02;;;;;;;;;;;21.20;63.30;;;;;;4973961;28;20660;-76
2022/05/12 14:36:27;;;;;;;;;;;21.30;64.50;;;;;;4967786;28;19932;-76
2022/05/12 14:38:53;;;;;;;;;;;21.00;63.20;;;;;;4971181;28;20346;-78
2022/05/12 14:41:20;;;;;;;;;;;20.60;63.40;;;;;;4955799;28;20061;-77
2022/05/12 14:43:46;;;;;;;;;;;20.20;63.80;;;;;;4953229;28;20046;-76
2022/05/12 14:46:12;;;;;;;;;;;20.30;63.80;;;;;;4969877;28;19930;-76
2022/05/12 14:48:40;;;;;;;;;;;19.80;62.90;;;;;;4955437;28;19984;-76
2022/05/12 14:51:06;;;;;;;;;;;19.90;64.90;;;;;;4974400;28;20056;-76
2022/05/12 14:53:32;;;;;;;;;;;20.00;63.20;;;;;;4970560;28;19925;-77
2022/05/12 14:55:58;;;;;;;;;;;20.30;63.80;;;;;;4971739;28;19933;-76
2022/05/12 14:58:23;;;;;;;;;;;20.70;62.20;;;;;;4975254;28;20351;-77